createdAt,value
2024-05-09T00:00:39.843Z,10.94
2024-05-09T00:05:38.104Z,10.93
2024-05-09T00:10:37.686Z,10.98
2024-05-09T00:15:36.441Z,10.98
2024-05-09T00:20:38.718Z,10.91
2024-05-09T00:25:40.875Z,10.95
2024-05-09T00:30:37.914Z,10.86
2024-05-09T00:35:35.331Z,10.72
2024-05-09T00:40:40.638Z,10.65
2024-05-09T00:45:39.326Z,10.59
2024-05-09T00:50:39.145Z,10.48
2024-05-09T00:55:39.034Z,10.36
2024-05-09T01:00:39.803Z,10.37
2024-05-09T01:05:39.568Z,10.26
2024-05-09T01:10:37.490Z,10.08
2024-05-09T01:15:35.722Z,9.94
2024-05-09T01:20:40.894Z,9.83
2024-05-09T01:25:40.929Z,9.74
2024-05-09T01:30:38.413Z,9.47
2024-05-09T01:35:35.470Z,9.36
2024-05-09T01:40:37.853Z,9.21
2024-05-09T01:45:36.770Z,9.00
2024-05-09T01:50:38.567Z,8.88
2024-05-09T01:55:39.356Z,8.84
2024-05-09T02:00:40.339Z,8.80
2024-05-09T02:05:39.714Z,8.77
2024-05-09T02:10:36.476Z,8.71
2024-05-09T02:15:33.325Z,8.71
2024-05-09T02:20:35.972Z,8.67
2024-05-09T02:25:35.429Z,8.64
2024-05-09T02:30:40.276Z,8.51
2024-05-09T02:35:38.685Z,8.43
2024-05-09T02:40:38.196Z,8.39
2024-05-09T02:45:36.193Z,8.39
2024-05-09T02:50:38.078Z,8.39
2024-05-09T02:55:38.270Z,8.38
2024-05-09T03:00:39.427Z,8.22
2024-05-09T03:05:38.724Z,7.98
2024-05-09T03:10:37.858Z,7.95
2024-05-09T03:15:35.965Z,7.92
2024-05-09T03:20:35.751Z,8.09
2024-05-09T03:25:34.547Z,8.06
2024-05-09T03:30:39.809Z,8.01
2024-05-09T03:35:39.215Z,8.12
2024-05-09T03:40:35.976Z,8.19
2024-05-09T03:45:32.675Z,8.25
2024-05-09T03:50:33.967Z,8.24
2024-05-09T03:55:32.741Z,8.25
2024-05-09T04:00:36.943Z,8.16
2024-05-09T04:05:35.746Z,8.09
2024-05-09T04:10:34.321Z,7.99
2024-05-09T04:15:32.396Z,7.94
2024-05-09T04:20:37.394Z,7.96
2024-05-09T04:25:37.259Z,7.96
2024-05-09T04:30:38.863Z,7.90
2024-05-09T04:35:38.050Z,7.90
2024-05-09T04:40:36.885Z,7.93
2024-05-09T04:45:35.069Z,7.97
2024-05-09T04:50:37.021Z,8.03
2024-05-09T04:55:36.418Z,8.10
2024-05-09T05:00:37.133Z,8.21
2024-05-09T05:05:40.328Z,8.22
2024-05-09T05:10:37.244Z,8.38
2024-05-09T05:15:33.987Z,8.59
2024-05-09T05:20:33.685Z,8.91
2024-05-09T05:25:31.159Z,9.01
2024-05-09T05:30:32.774Z,9.29
2024-05-09T05:35:31.661Z,9.65
2024-05-09T05:40:36.040Z,10.07
2024-05-09T05:45:35.447Z,10.57
2024-05-09T05:50:36.131Z,11.12
2024-05-09T05:55:34.719Z,11.62
2024-05-09T06:00:38.340Z,12.05
2024-05-09T06:05:38.918Z,12.52
2024-05-09T06:10:39.368Z,12.77
2024-05-09T06:15:37.661Z,13.14
2024-05-09T06:20:37.148Z,13.56
2024-05-09T06:25:36.077Z,13.84
2024-05-09T06:35:34.086Z,14.31
2024-05-09T06:40:37.349Z,14.48
2024-05-09T06:45:37.170Z,14.78
2024-05-09T06:50:37.725Z,14.05
2024-05-09T06:55:37.354Z,14.11
2024-05-09T07:00:39.326Z,14.56
2024-05-09T07:05:38.021Z,14.59
2024-05-09T07:10:36.514Z,14.77
2024-05-09T07:15:33.738Z,14.42
2024-05-09T07:20:34.577Z,14.88
2024-05-09T07:25:32.015Z,15.19
2024-05-09T07:30:33.471Z,14.67
2024-05-09T07:35:31.797Z,14.62
2024-05-09T07:40:35.131Z,15.20
2024-05-09T07:55:39.543Z,16.50
2024-05-09T08:00:36.417Z,16.31
2024-05-09T08:05:33.415Z,15.86
2024-05-09T08:10:30.424Z,15.80
2024-05-09T08:15:27.286Z,15.89
2024-05-09T08:20:30.998Z,16.13
2024-05-09T08:25:31.673Z,17.18
2024-05-09T08:30:33.256Z,17.11
2024-05-09T08:35:33.672Z,17.96
2024-05-09T08:40:35.935Z,18.39
2024-05-09T08:45:35.916Z,19.06
2024-05-09T08:50:38.671Z,18.55
2024-05-09T08:55:40.600Z,18.60
2024-05-09T09:00:42.234Z,19.17
2024-05-09T09:05:40.909Z,19.74
2024-05-09T09:10:39.890Z,20.26
2024-05-09T09:15:47.400Z,19.04
2024-05-09T09:20:45.302Z,18.44
2024-05-09T09:25:42.558Z,18.38
2024-05-09T09:30:43.020Z,18.06
2024-05-09T09:35:40.764Z,18.55
2024-05-09T09:40:42.862Z,19.58
2024-05-09T09:45:44.314Z,19.24
2024-05-09T09:50:42.203Z,19.15
2024-05-09T09:55:40.338Z,19.14
2024-05-09T10:00:37.234Z,19.05
2024-05-09T10:05:34.855Z,18.76
2024-05-09T10:10:34.465Z,18.24
2024-05-09T10:15:45.369Z,18.16
2024-05-09T10:20:46.589Z,19.44
2024-05-09T10:25:43.354Z,18.86
2024-05-09T10:30:43.013Z,19.62
2024-05-09T10:35:51.153Z,20.83
2024-05-09T10:40:49.434Z,20.51
2024-05-09T10:45:46.139Z,20.44
2024-05-09T10:50:43.949Z,20.13
2024-05-09T10:55:40.866Z,19.96
2024-05-09T11:00:37.860Z,20.51
2024-05-09T11:05:35.953Z,20.23
2024-05-09T11:10:34.415Z,19.22
2024-05-09T11:15:39.459Z,19.03
2024-05-09T11:20:37.443Z,19.75
2024-05-09T11:25:34.543Z,20.35
2024-05-09T11:30:35.323Z,21.43
2024-05-09T11:35:33.186Z,21.04
2024-05-09T11:40:34.230Z,19.75
2024-05-09T11:45:31.493Z,18.99
2024-05-09T11:50:33.012Z,18.91
2024-05-09T11:55:36.506Z,19.13
2024-05-09T12:00:37.146Z,19.02
2024-05-09T12:05:34.909Z,19.51
2024-05-09T12:10:34.442Z,19.96
2024-05-09T12:15:32.929Z,20.67
2024-05-09T12:20:36.217Z,21.66
2024-05-09T12:25:36.805Z,22.05
2024-05-09T12:30:38.182Z,20.47
2024-05-09T12:35:37.003Z,20.94
2024-05-09T12:40:37.075Z,20.91
2024-05-09T12:45:35.611Z,21.08
2024-05-09T12:50:34.231Z,20.77
2024-05-09T12:55:40.403Z,20.57
2024-05-09T13:00:45.318Z,21.37
2024-05-09T13:05:44.840Z,21.65
2024-05-09T13:10:42.619Z,21.61
2024-05-09T13:15:39.531Z,20.97
2024-05-09T13:20:37.156Z,20.87
2024-05-09T13:25:37.768Z,21.77
2024-05-09T13:30:39.950Z,21.42
2024-05-09T13:35:38.697Z,20.78
2024-05-09T13:40:36.597Z,21.27
2024-05-09T13:45:34.385Z,21.53
2024-05-09T13:50:35.148Z,21.48
2024-05-09T13:55:33.710Z,22.07
2024-05-09T14:00:42.261Z,22.93
2024-05-09T14:05:44.271Z,21.49
2024-05-09T14:10:44.770Z,21.25
2024-05-09T14:15:41.843Z,21.82
2024-05-09T14:20:38.522Z,20.92
2024-05-09T14:25:40.461Z,21.67
2024-05-09T14:30:39.646Z,22.24
2024-05-09T14:35:38.249Z,21.66
2024-05-09T14:40:41.867Z,21.48
2024-05-09T14:45:41.024Z,21.91
2024-05-09T14:50:39.818Z,22.00
2024-05-09T14:55:42.859Z,21.46
2024-05-09T15:00:46.261Z,21.98
2024-05-09T15:05:47.556Z,22.41
2024-05-09T15:10:44.628Z,22.79
2024-05-09T15:15:42.022Z,22.83
2024-05-09T15:20:40.652Z,22.04
2024-05-09T15:25:37.987Z,21.06
2024-05-09T15:30:35.459Z,21.21
2024-05-09T15:35:32.454Z,21.56
2024-05-09T15:40:36.217Z,21.42
2024-05-09T15:45:36.576Z,21.89
2024-05-09T15:50:38.750Z,22.36
2024-05-09T15:55:38.685Z,21.49
2024-05-09T16:00:40.271Z,22.05
2024-05-09T16:05:39.522Z,21.31
2024-05-09T16:10:38.779Z,21.17
2024-05-09T16:15:35.992Z,21.41
2024-05-09T16:20:39.047Z,23.18
2024-05-09T16:25:45.407Z,22.93
2024-05-09T16:30:42.240Z,22.73
2024-05-09T16:35:39.619Z,21.36
2024-05-09T16:40:39.949Z,21.23
2024-05-09T16:45:39.809Z,21.47
2024-05-09T16:50:37.086Z,22.32
2024-05-09T16:55:34.587Z,22.30
2024-05-09T17:00:39.639Z,21.57
2024-05-09T17:05:40.349Z,21.31
2024-05-09T17:10:37.507Z,21.03
2024-05-09T17:15:35.187Z,20.42
2024-05-09T17:20:35.294Z,19.95
2024-05-09T17:25:34.332Z,19.82
2024-05-09T17:30:35.580Z,19.88
2024-05-09T17:35:35.376Z,19.78
2024-05-09T17:40:35.814Z,19.48
2024-05-09T17:45:34.518Z,19.19
2024-05-09T17:50:35.582Z,19.00
2024-05-09T17:55:35.039Z,19.18
2024-05-09T18:00:38.712Z,20.07
2024-05-09T18:05:38.557Z,20.20
2024-05-09T18:10:38.668Z,19.89
2024-05-09T18:15:37.005Z,19.57
2024-05-09T18:20:41.831Z,19.14
2024-05-09T18:25:42.494Z,18.75
2024-05-09T18:30:40.567Z,18.34
2024-05-09T18:35:37.383Z,18.05
2024-05-09T18:40:36.790Z,17.88
2024-05-09T18:45:35.107Z,17.67
2024-05-09T18:50:36.073Z,17.35
2024-05-09T18:55:35.786Z,16.99
2024-05-09T19:00:36.444Z,16.73
2024-05-09T19:05:36.426Z,16.45
2024-05-09T19:10:35.108Z,16.30
2024-05-09T19:15:32.812Z,16.12
2024-05-09T19:20:34.248Z,16.00
2024-05-09T19:25:33.138Z,15.84
2024-05-09T19:30:37.879Z,15.70
2024-05-09T19:35:37.887Z,15.57
2024-05-09T19:40:35.521Z,15.52
2024-05-09T19:45:33.728Z,15.45
2024-05-09T19:50:37.901Z,15.38
2024-05-09T19:55:40.429Z,15.36
2024-05-09T20:00:40.087Z,15.22
2024-05-09T20:05:39.632Z,15.20
2024-05-09T20:10:37.129Z,15.20
2024-05-09T20:15:35.604Z,15.15
2024-05-09T20:20:38.216Z,15.04
2024-05-09T20:25:38.517Z,14.92
2024-05-09T20:30:36.138Z,14.84
2024-05-09T20:35:33.472Z,14.69
2024-05-09T20:40:34.396Z,14.59
2024-05-09T20:45:34.532Z,14.48
2024-05-09T20:50:38.146Z,14.35
2024-05-09T20:55:37.943Z,14.14
2024-05-09T21:00:39.729Z,14.01
2024-05-09T21:05:40.530Z,13.92
2024-05-09T21:10:37.985Z,13.74
2024-05-09T21:15:35.868Z,13.53
2024-05-09T21:20:34.936Z,13.42
2024-05-09T21:25:32.377Z,13.41
2024-05-09T21:30:38.526Z,13.29
2024-05-09T21:35:38.917Z,13.06
2024-05-09T21:40:37.464Z,12.91
2024-05-09T21:45:35.633Z,12.93
2024-05-09T21:50:39.327Z,12.78
2024-05-09T21:55:38.351Z,12.60
2024-05-09T22:00:38.140Z,12.64
2024-05-09T22:05:36.543Z,12.56
2024-05-09T22:10:35.636Z,12.36
2024-05-09T22:15:37.300Z,12.34
2024-05-09T22:20:38.291Z,12.13
2024-05-09T22:25:36.927Z,11.90
2024-05-09T22:30:37.759Z,11.74
2024-05-09T22:35:36.457Z,11.60
2024-05-09T22:40:42.734Z,11.53
2024-05-09T22:45:44.675Z,11.50
2024-05-09T22:50:41.750Z,11.48
2024-05-09T22:55:38.357Z,11.53
2024-05-09T23:00:35.472Z,11.64
2024-05-09T23:05:32.988Z,11.68
2024-05-09T23:10:35.734Z,11.79
2024-05-09T23:15:34.677Z,11.84
2024-05-09T23:20:37.132Z,11.98
2024-05-09T23:25:37.371Z,12.11
2024-05-09T23:30:38.445Z,12.11
2024-05-09T23:35:37.284Z,12.03
2024-05-09T23:40:39.480Z,11.96
2024-05-09T23:45:38.593Z,11.88
2024-05-09T23:50:37.944Z,11.81
2024-05-09T23:55:36.305Z,11.65
